Flight Track Log - Related Links

Times and Time Zones

All times are in EDT time to prevent confusion due to time zone crossing. See the AWE1963 flight status page for this flight to view local times or setup timezone preferences in your user account.

Time Position Orientation Groundspeed Altitude Reporting Facility
EDT Latitude Longitude Course Direction KTS MPH feet Rate Location/Type
Wed 08:22:52 AM 35.1886 -80.9358 202° Southwest 171 197 1,800  Level Atlanta Center
Wed 08:23:47 AM 35.1406 -80.9300 174° South 191 220 2,900 1,603 Climbing Atlanta Center
Wed 08:24:48 AM 35.0672 -80.9150 170° South 283 326 4,900 2,110 Climbing Atlanta Center
Wed 08:25:00 AM 34.8429 -80.6080 180° South  Level Estimated
Wed 08:25:18 AM 35.0233 -80.9114 176° South 292 336 6,100  Level Atlanta Center
Wed 08:26:00 AM 34.7500 -80.5232 180° South  Level Estimated
Wed 08:27:00 AM 34.6571 -80.4387 175° South  Level Estimated
Wed 08:27:17 AM 34.8681 -80.9039 178° South 291 335 10,900  Level Jacksonville Center
Wed 08:28:00 AM 34.5495 -80.4916 202° Southwest  Level FlightAware Approximate
Wed 08:28:17 AM 34.7742 -80.9036 180° South 318 366 12,700  Level Jacksonville Center
Wed 08:29:17 AM 34.6719 -80.9008 179° South 352 405 14,300 1,700 Climbing Jacksonville Center
Wed 08:30:17 AM 34.5653 -80.8881 174° South 384 442 16,100 1,750 Climbing Jacksonville Center
Wed 08:31:17 AM 34.4525 -80.8781 176° South 398 458 17,800 1,600 Climbing Jacksonville Center
Wed 08:32:17 AM 34.3356 -80.8633 174° South 411 473 19,300 1,350 Climbing Jacksonville Center
Wed 08:33:17 AM 34.2247 -80.8483 174° South 418 481 20,500 1,400 Climbing Jacksonville Center
Wed 08:34:17 AM 34.1056 -80.8311 173° South 418 481 22,100 1,850 Climbing Jacksonville Center
Wed 08:35:17 AM 33.9986 -80.8136 172° South 434 499 24,200 2,500 Climbing Jacksonville Center
Wed 08:36:17 AM 33.8978 -80.7658 159° South 423 487 27,100 1,850 Climbing Jacksonville Center
Wed 08:37:17 AM 33.8292 -80.6575 127° Southeast 359 413 27,900 650 Climbing Jacksonville Center
Wed 08:38:17 AM 33.7686 -80.5392 122° Southeast 378 435 28,400 600 Climbing Jacksonville Center
Wed 08:39:17 AM 33.7036 -80.4161 122° Southeast 415 478 29,100 650 Climbing Jacksonville Center
Wed 08:40:17 AM 33.6322 -80.2883 124° Southeast 441 507 29,700 500 Climbing Jacksonville Center
Wed 08:41:17 AM 33.5625 -80.1583 123° Southeast 456 525 30,100 400 Climbing Jacksonville Center
Wed 08:42:17 AM 33.4886 -80.0211 123° Southeast 469 540 30,500 650 Climbing Jacksonville Center
Wed 08:43:17 AM 33.4144 -79.8842 123° Southeast 483 556 31,400 950 Climbing Jacksonville Center
Wed 08:44:17 AM 33.3381 -79.7475 124° Southeast 488 562 32,400 950 Climbing Jacksonville Center
Wed 08:45:17 AM 33.2636 -79.6111 123° Southeast 488 562 33,300 900 Climbing Jacksonville Center
Wed 08:46:17 AM 33.1892 -79.4797 124° Southeast 488 562 34,200 750 Climbing Jacksonville Center
Wed 08:47:17 AM 33.1125 -79.3439 124° Southeast 488 562 34,800 400 Climbing Jacksonville Center
Wed 08:48:17 AM 33.0378 -79.2106 124° Southeast 488 562 35,000 100 Climbing Jacksonville Center
Wed 08:49:17 AM 32.9650 -79.0822 124° Southeast 481 554 35,000  Level Jacksonville Center
Wed 08:50:17 AM 32.8900 -78.9494 124° Southeast 476 548 35,000  Level Jacksonville Center
Wed 08:51:17 AM 32.8150 -78.8192 124° Southeast 476 548 35,000  Level Jacksonville Center
Wed 08:52:17 AM 32.7417 -78.6892 124° Southeast 476 548 35,000  Level Jacksonville Center
Wed 08:53:17 AM 32.6686 -78.5619 124° Southeast 476 548 35,000  Level Jacksonville Center
Wed 08:54:17 AM 32.5997 -78.4419 124° Southeast 476 548 35,000 150 Level Jacksonville Center
Wed 08:55:17 AM 32.5264 -78.3150 124° Southeast 476 548 35,300 450 Climbing Jacksonville Center
Wed 08:56:17 AM 32.4528 -78.1881 124° Southeast 471 542 35,900 700 Climbing Jacksonville Center
Wed 08:57:17 AM 32.3722 -78.0447 124° Southeast 483 556 36,700 550 Climbing Jacksonville Center
Wed 08:58:17 AM 32.2964 -77.9161 125° Southeast 478 550 37,000 100 Climbing Jacksonville Center
Wed 08:59:17 AM 32.2128 -77.8103 133° Southeast 469 540 36,900  Descending Jacksonville Center
Wed 09:00:17 AM 32.1011 -77.7306 149° Southeast 455 524 37,000 50 Climbing Jacksonville Center
Wed 09:01:17 AM 31.9872 -77.6561 151° Southeast 465 535 37,000  Level Jacksonville Center
Wed 09:02:17 AM 31.8697 -77.5894 154° Southeast 465 535 37,000  Level Jacksonville Center
Wed 09:03:17 AM 31.7522 -77.5278 156° South 465 535 37,000  Level Jacksonville Center
Wed 09:04:17 AM 31.6367 -77.4589 153° Southeast 465 535 37,000 -50 Level Jacksonville Center
Wed 09:05:17 AM 31.5344 -77.3650 142° Southeast 465 535 36,900 -50 Descending Jacksonville Center
Wed 09:06:17 AM 31.4361 -77.2614 138° Southeast 465 535 36,900 50 Level Jacksonville Center
Wed 09:07:17 AM 31.3336 -77.1653 141° Southeast 465 535 37,000 50 Climbing Jacksonville Center
Wed 09:08:17 AM 31.2431 -77.0519 133° Southeast 465 535 37,000 -50 Level Jacksonville Center
Wed 09:09:17 AM 31.1567 -76.9456 133° Southeast 471 542 36,900  Descending Jacksonville Center
Wed 09:10:04 AM 31.3500 -77.0000 140° Southeast 448 516 37,000 13 Climbing New York Oceanic (ODAPS)
Wed 09:17:00 AM 30.3881 -76.0796 141° Southeast 448 516 37,000  Level FlightAware Transoceanic
Wed 09:18:00 AM 30.2915 -75.9885 141° Southeast 448 516 37,000  Level FlightAware Transoceanic
Wed 09:19:00 AM 30.1949 -75.8977 141° Southeast 448 516 37,000  Level FlightAware Transoceanic
Wed 09:20:00 AM 30.0982 -75.8070 141° Southeast 448 516 37,000  Level FlightAware Transoceanic
Wed 09:21:00 AM 30.0015 -75.7165 141° Southeast 448 516 37,000  Level FlightAware Transoceanic
Wed 09:22:00 AM 29.9047 -75.6261 141° Southeast 448 516 37,000  Level FlightAware Transoceanic
Wed 09:23:00 AM 29.8078 -75.5360 141° Southeast 448 516 37,000  Level FlightAware Transoceanic
Wed 09:24:00 AM 29.7109 -75.4460 141° Southeast 448 516 37,000  Level FlightAware Transoceanic
Wed 09:25:00 AM 29.6139 -75.3562 141° Southeast 448 516 37,000  Level FlightAware Transoceanic
Wed 09:26:00 AM 29.5169 -75.2666 141° Southeast 448 516 37,000  Level FlightAware Transoceanic
Wed 09:27:00 AM 29.4198 -75.1771 141° Southeast 448 516 37,000  Level FlightAware Transoceanic
Wed 09:28:00 AM 29.3226 -75.0878 141° Southeast 448 516 37,000  Level FlightAware Transoceanic
Wed 09:29:00 AM 29.2254 -74.9987 141° Southeast 448 516 37,000  Level FlightAware Transoceanic
Wed 09:30:00 AM 29.1281 -74.9098 141° Southeast 448 516 37,000  Level FlightAware Transoceanic
Wed 09:31:00 AM 29.0308 -74.8210 141° Southeast 448 516 37,000  Level FlightAware Transoceanic
Wed 09:32:00 AM 28.9334 -74.7324 142° Southeast 448 516 37,000  Level FlightAware Transoceanic
Wed 09:33:00 AM 28.8359 -74.6439 142° Southeast 448 516 37,000  Level FlightAware Transoceanic
Wed 09:34:00 AM 28.7384 -74.5556 142° Southeast 448 516 37,000  Level FlightAware Transoceanic
Wed 09:35:00 AM 28.6408 -74.4675 142° Southeast 448 516 37,000  Level FlightAware Transoceanic
Wed 09:36:00 AM 28.5432 -74.3795 142° Southeast 448 516 37,000  Level FlightAware Transoceanic
Wed 09:37:00 AM 28.4455 -74.2918 142° Southeast 448 516 37,000  Level FlightAware Transoceanic
Wed 09:38:00 AM 28.3478 -74.2041 142° Southeast 448 516 37,000  Level FlightAware Transoceanic
Wed 09:39:00 AM 28.2500 -74.1167 149° Southeast 448 516 37,000  Level FlightAware Transoceanic
Wed 09:40:00 AM 28.1422 -74.0441 149° Southeast 448 516 37,000  Level FlightAware Transoceanic
Wed 09:40:20 AM 28.2500 -74.1167 149° Southeast 450 518 37,000  Level New York Oceanic (ODAPS)
Wed 09:41:00 AM 28.0343 -73.9717 149° Southeast 448 516 37,000  Level FlightAware Transoceanic
Wed 09:42:00 AM 27.9265 -73.8994 149° Southeast 448 516 37,000  Level FlightAware Transoceanic
Wed 09:43:00 AM 27.8185 -73.8273 149° Southeast 448 516 37,000  Level FlightAware Transoceanic
Wed 09:44:00 AM 27.7106 -73.7553 149° Southeast 448 516 37,000  Level FlightAware Transoceanic
Wed 09:45:00 AM 27.6026 -73.6835 150° Southeast 448 516 37,000  Level FlightAware Transoceanic
Wed 09:46:00 AM 27.3864 -73.5403 150° Southeast 450 518 37,000  Level FlightAware Transoceanic
Wed 09:47:00 AM 27.2783 -73.4689 150° Southeast 450 518 37,000  Level FlightAware Transoceanic
Wed 09:48:00 AM 27.1702 -73.3976 150° Southeast 450 518 37,000  Level FlightAware Transoceanic
Wed 09:49:00 AM 27.0620 -73.3265 150° Southeast 450 518 37,000  Level FlightAware Transoceanic
Wed 09:50:00 AM 26.9538 -73.2555 150° Southeast 450 518 37,000  Level FlightAware Transoceanic
Wed 09:51:00 AM 26.8455 -73.1846 150° Southeast 450 518 37,000  Level FlightAware Transoceanic
Wed 09:52:00 AM 26.7372 -73.1139 150° Southeast 450 518 37,000  Level FlightAware Transoceanic
Wed 09:53:00 AM 26.6289 -73.0433 150° Southeast 450 518 37,000  Level FlightAware Transoceanic
Wed 09:54:00 AM 26.5206 -72.9728 150° Southeast 450 518 37,000  Level FlightAware Transoceanic
Wed 09:55:00 AM 26.4122 -72.9025 150° Southeast 450 518 37,000  Level FlightAware Transoceanic
Wed 09:56:00 AM 26.3037 -72.8323 150° Southeast 450 518 37,000  Level FlightAware Transoceanic
Wed 09:57:00 AM 26.1953 -72.7623 150° Southeast 450 518 37,000  Level FlightAware Transoceanic
Wed 09:58:00 AM 26.0868 -72.6923 150° Southeast 450 518 37,000  Level FlightAware Transoceanic
Wed 09:59:00 AM 25.9783 -72.6225 150° Southeast 450 518 37,000  Level FlightAware Transoceanic
Wed 10:00:00 AM 25.8697 -72.5528 150° Southeast 450 518 37,000  Level FlightAware Transoceanic
Wed 10:01:00 AM 25.7611 -72.4833 150° Southeast 450 518 37,000  Level FlightAware Transoceanic
Wed 10:01:30 AM 25.7892 -72.5644 150° Southeast 451 519 37,000  Level Miami Center
Wed 10:02:00 AM 25.6525 -72.4139 150° Southeast 450 518 37,000  Level FlightAware Transoceanic
Wed 10:02:30 AM 25.6764 -72.4922 150° Southeast 458 527 37,000  Level Miami Center
Wed 10:03:00 AM 25.5438 -72.3446 150° Southeast 450 518 37,000  Level FlightAware Transoceanic
Wed 10:03:30 AM 25.5719 -72.4269 151° Southeast 451 519 37,000  Level Miami Center
Wed 10:04:00 AM 25.4351 -72.2754 150° Southeast 450 518 37,000  Level FlightAware Transoceanic
Wed 10:04:30 AM 25.4633 -72.3575 150° Southeast 445 512 37,000  Level Miami Center
Wed 10:05:00 AM 25.3264 -72.2064 150° Southeast 450 518 37,000  Level FlightAware Transoceanic
Wed 10:05:30 AM 25.3567 -72.2856 149° Southeast 451 519 37,000  Level Miami Center
Wed 10:06:00 AM 25.2176 -72.1375 150° Southeast 450 518 37,000  Level FlightAware Transoceanic
Wed 10:06:30 AM 25.2481 -72.2161 150° Southeast 458 527 37,000  Level Miami Center
Wed 10:07:30 AM 25.1492 -72.1306 142° Southeast 453 521 37,000  Level Miami Center
Wed 10:08:30 AM 25.0483 -72.0403 141° Southeast 454 522 37,000  Level Miami Center
Wed 10:09:30 AM 24.9639 -71.9497 136° Southeast 449 517 37,000 50 Level Miami Center
Wed 10:10:30 AM 24.8789 -71.8456 132° Southeast 444 511 37,100 150 Climbing Miami Center
Wed 10:11:30 AM 24.7939 -71.7417 132° Southeast 450 518 37,300 300 Climbing Miami Center
Wed 10:12:30 AM 24.7003 -71.6314 133° Southeast 450 518 37,700 350 Climbing Miami Center
Wed 10:13:30 AM 24.6236 -71.5364 132° Southeast 455 524 38,000 150 Climbing Miami Center
Wed 10:14:30 AM 24.5403 -71.4258 130° Southeast 463 533 38,000  Level Miami Center
Wed 10:15:30 AM 24.4572 -71.3267 133° Southeast 463 533 38,000  Level Miami Center
Wed 10:16:30 AM 24.3675 -71.2144 131° Southeast 448 516 38,000  Level Miami Center
Wed 10:17:30 AM 24.2819 -71.1069 131° Southeast 454 522 38,000  Level Miami Center
Wed 10:18:30 AM 24.1967 -71.0061 133° Southeast 457 526 38,000 50 Level Miami Center
Wed 10:19:30 AM 24.1031 -70.9128 138° Southeast 462 532 38,100 50 Climbing Miami Center
Wed 10:20:30 AM 23.9883 -70.8636 159° South 444 511 38,100 -50 Level Miami Center
Wed 10:21:30 AM 23.8703 -70.8283 165° South 431 496 38,000 -50 Descending Miami Center
Wed 10:22:30 AM 23.7561 -70.7931 164° South 433 498 38,000  Level Miami Center
Wed 10:23:30 AM 23.6400 -70.7622 166° South 433 498 38,000  Level Miami Center
Wed 10:24:30 AM 23.5236 -70.7250 164° South 433 498 38,000  Level Miami Center
Wed 10:25:30 AM 23.4033 -70.6922 166° South 439 505 38,000 50 Level Miami Center
Wed 10:26:30 AM 23.2850 -70.6550 164° South 444 511 38,100  Climbing Miami Center
Wed 10:27:30 AM 23.1647 -70.6225 166° South 444 511 38,000 -50 Descending Miami Center
Wed 10:28:30 AM 23.0464 -70.5856 164° South 440 506 38,000  Level Miami Center
Wed 10:29:30 AM 22.9281 -70.5506 165° South 440 506 38,000  Level Miami Center
Wed 10:30:30 AM 22.8056 -70.5139 165° South 447 514 38,000  Level Miami Center
Wed 10:31:30 AM 22.6808 -70.4750 164° South 453 521 38,000 50 Level Miami Center
Wed 10:32:30 AM 22.5606 -70.4428 166° South 459 528 38,100  Climbing Miami Center
Wed 10:33:30 AM 22.4400 -70.4061 164° South 459 528 38,000 -50 Descending Miami Center
Wed 10:34:30 AM 22.3175 -70.3694 165° South 459 528 38,000  Level Miami Center
Wed 10:35:30 AM 22.1950 -70.3353 166° South 459 528 38,000  Level Miami Center
Wed 10:36:30 AM 22.0725 -70.2986 164° South 459 528 38,000  Level Miami Center
Wed 10:37:30 AM 21.9522 -70.2644 165° South 459 528 38,000  Level Miami Center
Wed 10:38:30 AM 21.8319 -70.2303 165° South 459 528 38,000  Level Miami Center
Wed 10:39:30 AM 21.7072 -70.1919 164° South 459 528 38,000  Level Miami Center
Wed 10:40:30 AM 21.5869 -70.1578 165° South 459 528 38,000  Level Miami Center
Wed 10:41:30 AM 21.4644 -70.1239 166° South 459 528 38,000  Level Miami Center
Wed 10:42:30 AM 21.3419 -70.0875 165° South 464 534 38,000  Level Miami Center
Wed 10:43:30 AM 21.2364 -70.0550 164° South 457 526 38,000  Level Miami Center
Wed 10:44:30 AM 21.1161 -70.0211 165° South 452 520 38,000  Level Miami Center
Wed 10:45:30 AM 20.9936 -69.9875 166° South 452 520 38,000 -300 Level Miami Center
Wed 10:46:30 AM 20.8753 -69.9511 164° South 452 520 37,400 -800 Descending Miami Center
Wed 10:47:30 AM 20.7528 -69.9153 165° South 452 520 36,400 -950 Descending Miami Center
Wed 10:48:30 AM 20.6303 -69.8794 165° South 452 520 35,500 -1,000 Descending Miami Center
Wed 10:49:30 AM 20.5039 -69.8439 165° South 464 534 34,400 -1,000 Descending Miami Center
Wed 10:50:30 AM 20.3814 -69.8103 166° South 464 534 33,500 -950 Descending Miami Center
Wed 10:51:30 AM 20.2569 -69.7747 165° South 459 528 32,500 -1,650 Descending Miami Center
Wed 10:52:30 AM 20.1283 -69.7417 166° South 464 534 30,200 -2,300 Descending Miami Center
Wed 10:54:00 AM 19.9575 -69.6858 163° South  Level FlightAware Approximate
Wed 11:01:00 AM 19.3337 -69.1002 137° Southeast  Level FlightAware Approximate
Wed 11:02:00 AM 19.2471 -69.0136 137° Southeast  Level FlightAware Approximate
Wed 11:03:00 AM 19.1604 -68.9270 137° Southeast  Level FlightAware Approximate
Wed 11:04:00 AM 19.0702 -68.8447 140° Southeast  Level FlightAware Approximate
Wed 11:05:00 AM 18.9796 -68.7629 137° Southeast  Level FlightAware Approximate
Wed 11:06:00 AM 18.8931 -68.6764 137° Southeast  Level FlightAware Approximate
Wed 11:07:00 AM 18.8039 -68.5930 140° Southeast  Level FlightAware Approximate
Wed 11:08:00 AM 18.7124 -68.5124 137° Southeast  Level FlightAware Approximate
Wed 11:09:00 AM 18.6234 -68.4312 128° Southeast  Level FlightAware Approximate
Wed 11:10:00 AM 18.5674 -68.3634 90° East  Level Estimated
Wed 11:11:00 AM 18.5674 -68.3634 90° East  Level Estimated
Wed 11:12:00 AM 18.5674 -68.3634 90° East  Level Estimated
Wed 11:13:00 AM 18.5674 -68.3634 90° East  Level Estimated
Wed 11:14:00 AM 18.5674 -68.3634 90° East  Level Estimated
Wed 11:15:00 AM 18.5674 -68.3634 90° East  Level Estimated
Wed 11:16:00 AM 18.5674 -68.3634 90° East  Level Estimated
Wed 11:17:00 AM 18.5674 -68.3634 90° East  Level Estimated

Login

Don't have an account? Register now (free) for customized features, flight alerts, and more!